sensor_id;sensor_type;location;lat;lon;timestamp;pressure;altitude;pressure_sealevel;temperature;humidity
64200;BME280;50516;52.272;5.136;2023-08-24T00:01:12;101877.84;;;19.08;81.32
64200;BME280;50516;52.272;5.136;2023-08-24T00:03:39;101870.72;;;19.02;81.70
64200;BME280;50516;52.272;5.136;2023-08-24T00:06:04;101864.13;;;18.98;81.94
64200;BME280;50516;52.272;5.136;2023-08-24T00:08:31;101860.75;;;19.01;81.68
64200;BME280;50516;52.272;5.136;2023-08-24T00:10:56;101864.34;;;19.02;81.70
64200;BME280;50516;52.272;5.136;2023-08-24T00:13:21;101865.31;;;19.11;81.48
64200;BME280;50516;52.272;5.136;2023-08-24T00:15:47;101871.69;;;19.11;81.48
64200;BME280;50516;52.272;5.136;2023-08-24T00:18:12;101858.97;;;19.05;81.68
64200;BME280;50516;52.272;5.136;2023-08-24T00:20:38;101850.63;;;19.05;81.81
64200;BME280;50516;52.272;5.136;2023-08-24T00:23:03;101855.28;;;19.10;81.76
64200;BME280;50516;52.272;5.136;2023-08-24T00:25:29;101857.97;;;19.15;81.39
64200;BME280;50516;52.272;5.136;2023-08-24T00:27:55;101857.38;;;19.18;81.38
64200;BME280;50516;52.272;5.136;2023-08-24T00:30:21;101843.75;;;19.16;81.50
64200;BME280;50516;52.272;5.136;2023-08-24T00:32:46;101834.28;;;19.18;81.50
64200;BME280;50516;52.272;5.136;2023-08-24T00:35:12;101837.56;;;19.20;81.34
64200;BME280;50516;52.272;5.136;2023-08-24T00:37:38;101836.66;;;19.10;81.51
64200;BME280;50516;52.272;5.136;2023-08-24T00:40:05;101837.97;;;19.13;81.34
64200;BME280;50516;52.272;5.136;2023-08-24T00:42:37;101827.34;;;19.15;80.98
64200;BME280;50516;52.272;5.136;2023-08-24T00:45:04;101833.00;;;19.10;81.29
64200;BME280;50516;52.272;5.136;2023-08-24T00:47:29;101824.47;;;19.06;81.30
64200;BME280;50516;52.272;5.136;2023-08-24T00:49:55;101819.94;;;19.10;81.08
64200;BME280;50516;52.272;5.136;2023-08-24T00:52:20;101820.97;;;19.14;81.23
64200;BME280;50516;52.272;5.136;2023-08-24T00:54:46;101819.63;;;19.12;80.90
64200;BME280;50516;52.272;5.136;2023-08-24T00:57:12;101826.31;;;19.11;80.98
64200;BME280;50516;52.272;5.136;2023-08-24T00:59:38;101839.75;;;19.09;81.07
64200;BME280;50516;52.272;5.136;2023-08-24T01:02:04;101832.41;;;19.13;81.13
64200;BME280;50516;52.272;5.136;2023-08-24T01:04:30;101828.50;;;19.14;81.05
64200;BME280;50516;52.272;5.136;2023-08-24T01:06:55;101820.66;;;19.16;81.13
64200;BME280;50516;52.272;5.136;2023-08-24T01:09:21;101822.63;;;19.15;80.96
64200;BME280;50516;52.272;5.136;2023-08-24T01:12:05;101825.94;;;19.18;81.10
64200;BME280;50516;52.272;5.136;2023-08-24T01:14:41;101819.44;;;19.22;80.97
64200;BME280;50516;52.272;5.136;2023-08-24T01:17:15;101823.97;;;19.18;81.19
64200;BME280;50516;52.272;5.136;2023-08-24T01:19:43;101832.84;;;19.20;81.21
64200;BME280;50516;52.272;5.136;2023-08-24T01:22:29;101834.47;;;19.21;81.24
64200;BME280;50516;52.272;5.136;2023-08-24T01:25:07;101835.22;;;19.27;81.35
64200;BME280;50516;52.272;5.136;2023-08-24T01:27:36;101841.31;;;19.29;81.20
64200;BME280;50516;52.272;5.136;2023-08-24T01:30:03;101841.31;;;19.29;81.46
64200;BME280;50516;52.272;5.136;2023-08-24T01:32:32;101835.72;;;19.29;81.35
64200;BME280;50516;52.272;5.136;2023-08-24T01:35:08;101832.13;;;19.28;81.66
64200;BME280;50516;52.272;5.136;2023-08-24T01:37:35;101832.66;;;19.30;82.10
64200;BME280;50516;52.272;5.136;2023-08-24T01:40:12;101837.59;;;19.33;82.30
64200;BME280;50516;52.272;5.136;2023-08-24T01:42:55;101839.03;;;19.31;82.49
64200;BME280;50516;52.272;5.136;2023-08-24T01:45:24;101826.88;;;19.27;82.75
64200;BME280;50516;52.272;5.136;2023-08-24T01:47:52;101823.03;;;19.23;83.32
64200;BME280;50516;52.272;5.136;2023-08-24T01:50:19;101814.78;;;19.18;83.93
64200;BME280;50516;52.272;5.136;2023-08-24T01:52:45;101811.81;;;19.14;84.66
64200;BME280;50516;52.272;5.136;2023-08-24T01:55:11;101812.00;;;19.18;85.13
64200;BME280;50516;52.272;5.136;2023-08-24T01:57:37;101798.19;;;19.12;85.35
64200;BME280;50516;52.272;5.136;2023-08-24T02:00:03;101794.91;;;19.10;85.62
64200;BME280;50516;52.272;5.136;2023-08-24T02:02:31;101790.13;;;19.11;86.02
64200;BME280;50516;52.272;5.136;2023-08-24T02:04:58;101782.72;;;19.06;86.33
64200;BME280;50516;52.272;5.136;2023-08-24T02:07:23;101789.50;;;19.00;86.88
64200;BME280;50516;52.272;5.136;2023-08-24T02:09:49;101791.97;;;19.02;87.03
64200;BME280;50516;52.272;5.136;2023-08-24T02:12:14;101795.56;;;19.02;87.11
64200;BME280;50516;52.272;5.136;2023-08-24T02:14:39;101795.16;;;18.95;87.55
64200;BME280;50516;52.272;5.136;2023-08-24T02:17:05;101800.31;;;18.88;88.14
64200;BME280;50516;52.272;5.136;2023-08-24T02:19:30;101798.88;;;18.90;87.86
64200;BME280;50516;52.272;5.136;2023-08-24T02:21:56;101782.47;;;18.89;88.13
64200;BME280;50516;52.272;5.136;2023-08-24T02:24:21;101764.66;;;18.90;88.33
64200;BME280;50516;52.272;5.136;2023-08-24T02:26:46;101763.09;;;18.84;88.59
64200;BME280;50516;52.272;5.136;2023-08-24T02:29:12;101760.81;;;18.86;88.74
64200;BME280;50516;52.272;5.136;2023-08-24T02:31:37;101759.75;;;18.82;88.68
64200;BME280;50516;52.272;5.136;2023-08-24T02:34:02;101763.66;;;18.80;88.97
64200;BME280;50516;52.272;5.136;2023-08-24T02:36:28;101763.91;;;18.84;88.68
64200;BME280;50516;52.272;5.136;2023-08-24T02:38:53;101756.25;;;18.76;89.11
64200;BME280;50516;52.272;5.136;2023-08-24T02:41:19;101748.81;;;18.71;89.47
64200;BME280;50516;52.272;5.136;2023-08-24T02:43:44;101754.97;;;18.68;89.46
64200;BME280;50516;52.272;5.136;2023-08-24T02:46:10;101758.91;;;18.67;89.48
64200;BME280;50516;52.272;5.136;2023-08-24T02:48:36;101745.50;;;18.69;89.43
64200;BME280;50516;52.272;5.136;2023-08-24T02:51:02;101731.50;;;18.60;89.82
64200;BME280;50516;52.272;5.136;2023-08-24T02:53:28;101736.22;;;18.60;89.79
64200;BME280;50516;52.272;5.136;2023-08-24T02:55:55;101726.22;;;18.59;89.87
64200;BME280;50516;52.272;5.136;2023-08-24T02:58:20;101712.94;;;18.56;89.81
64200;BME280;50516;52.272;5.136;2023-08-24T03:00:46;101714.97;;;18.50;90.30
64200;BME280;50516;52.272;5.136;2023-08-24T03:03:13;101729.16;;;18.49;90.13
64200;BME280;50516;52.272;5.136;2023-08-24T03:05:39;101735.97;;;18.42;90.38
64200;BME280;50516;52.272;5.136;2023-08-24T03:08:05;101730.63;;;18.46;90.42
64200;BME280;50516;52.272;5.136;2023-08-24T03:10:31;101724.84;;;18.42;90.27
64200;BME280;50516;52.272;5.136;2023-08-24T03:12:59;101722.44;;;18.36;90.34
64200;BME280;50516;52.272;5.136;2023-08-24T03:15:24;101715.75;;;18.37;90.41
64200;BME280;50516;52.272;5.136;2023-08-24T03:17:50;101717.13;;;18.39;90.37
64200;BME280;50516;52.272;5.136;2023-08-24T03:20:17;101706.38;;;18.33;90.45
64200;BME280;50516;52.272;5.136;2023-08-24T03:22:43;101697.81;;;18.29;90.63
64200;BME280;50516;52.272;5.136;2023-08-24T03:25:08;101703.38;;;18.29;90.66
64200;BME280;50516;52.272;5.136;2023-08-24T03:27:34;101700.59;;;18.29;90.44
64200;BME280;50516;52.272;5.136;2023-08-24T03:29:59;101692.75;;;18.31;90.35
64200;BME280;50516;52.272;5.136;2023-08-24T03:32:24;101686.69;;;18.29;90.42
64200;BME280;50516;52.272;5.136;2023-08-24T03:34:50;101685.06;;;18.28;90.23
64200;BME280;50516;52.272;5.136;2023-08-24T03:37:15;101683.19;;;18.23;90.64
64200;BME280;50516;52.272;5.136;2023-08-24T03:39:41;101680.09;;;18.25;90.47
64200;BME280;50516;52.272;5.136;2023-08-24T03:42:06;101692.66;;;18.22;90.38
64200;BME280;50516;52.272;5.136;2023-08-24T03:44:31;101698.41;;;18.26;90.27
64200;BME280;50516;52.272;5.136;2023-08-24T03:46:57;101694.06;;;18.20;90.32
64200;BME280;50516;52.272;5.136;2023-08-24T03:49:22;101689.75;;;18.14;90.69
64200;BME280;50516;52.272;5.136;2023-08-24T03:51:48;101691.63;;;18.18;90.66
64200;BME280;50516;52.272;5.136;2023-08-24T03:54:13;101690.78;;;18.18;90.67
64200;BME280;50516;52.272;5.136;2023-08-24T03:56:39;101684.59;;;18.21;90.60
64200;BME280;50516;52.272;5.136;2023-08-24T03:59:04;101691.63;;;18.18;90.61
64200;BME280;50516;52.272;5.136;2023-08-24T04:01:30;101689.81;;;18.09;91.18
64200;BME280;50516;52.272;5.136;2023-08-24T04:03:55;101685.41;;;18.08;91.38
64200;BME280;50516;52.272;5.136;2023-08-24T04:06:21;101692.47;;;18.00;91.60
64200;BME280;50516;52.272;5.136;2023-08-24T04:08:46;101682.69;;;18.02;91.67
64200;BME280;50516;52.272;5.136;2023-08-24T04:11:11;101691.72;;;17.94;91.80
64200;BME280;50516;52.272;5.136;2023-08-24T04:13:37;101689.88;;;18.03;91.35
64200;BME280;50516;52.272;5.136;2023-08-24T04:16:02;101693.72;;;18.08;91.14
64200;BME280;50516;52.272;5.136;2023-08-24T04:18:29;101691.16;;;18.11;91.06
64200;BME280;50516;52.272;5.136;2023-08-24T04:20:54;101695.91;;;18.11;90.98
64200;BME280;50516;52.272;5.136;2023-08-24T04:23:24;101701.25;;;18.07;91.00
64200;BME280;50516;52.272;5.136;2023-08-24T04:25:50;101706.47;;;18.09;90.94
64200;BME280;50516;52.272;5.136;2023-08-24T04:28:16;101687.13;;;18.03;91.44
64200;BME280;50516;52.272;5.136;2023-08-24T04:30:49;101692.59;;;18.09;91.03
64200;BME280;50516;52.272;5.136;2023-08-24T04:33:15;101685.81;;;18.15;90.64
64200;BME280;50516;52.272;5.136;2023-08-24T04:35:40;101686.81;;;18.05;91.06
64200;BME280;50516;52.272;5.136;2023-08-24T04:38:06;101687.88;;;18.09;90.92
64200;BME280;50516;52.272;5.136;2023-08-24T04:40:51;101690.13;;;18.07;90.99
64200;BME280;50516;52.272;5.136;2023-08-24T04:43:20;101690.94;;;18.08;91.27
64200;BME280;50516;52.272;5.136;2023-08-24T04:45:47;101698.09;;;18.14;90.94
64200;BME280;50516;52.272;5.136;2023-08-24T04:48:22;101693.22;;;18.05;91.11
64200;BME280;50516;52.272;5.136;2023-08-24T04:50:48;101689.28;;;18.06;91.06
64200;BME280;50516;52.272;5.136;2023-08-24T04:53:17;101687.19;;;18.17;90.86
64200;BME280;50516;52.272;5.136;2023-08-24T04:55:43;101688.00;;;18.18;90.69
64200;BME280;50516;52.272;5.136;2023-08-24T04:58:09;101696.78;;;18.25;90.17
64200;BME280;50516;52.272;5.136;2023-08-24T05:00:37;101691.81;;;18.22;90.44
64200;BME280;50516;52.272;5.136;2023-08-24T05:03:04;101687.84;;;18.28;90.23
64200;BME280;50516;52.272;5.136;2023-08-24T05:05:30;101693.31;;;18.33;90.45
64200;BME280;50516;52.272;5.136;2023-08-24T05:07:56;101686.28;;;18.36;90.09
64200;BME280;50516;52.272;5.136;2023-08-24T05:10:22;101684.47;;;18.45;89.70
64200;BME280;50516;52.272;5.136;2023-08-24T05:12:47;101670.66;;;18.40;89.98
64200;BME280;50516;52.272;5.136;2023-08-24T05:15:12;101671.19;;;18.42;90.12
64200;BME280;50516;52.272;5.136;2023-08-24T05:17:39;101659.03;;;18.52;90.02
64200;BME280;50516;52.272;5.136;2023-08-24T05:20:05;101651.75;;;18.56;89.62
64200;BME280;50516;52.272;5.136;2023-08-24T05:22:30;101643.91;;;18.58;89.77
64200;BME280;50516;52.272;5.136;2023-08-24T05:24:55;101638.78;;;18.65;89.56
64200;BME280;50516;52.272;5.136;2023-08-24T05:27:21;101641.25;;;18.80;89.08
64200;BME280;50516;52.272;5.136;2023-08-24T05:29:46;101638.69;;;18.84;88.71
64200;BME280;50516;52.272;5.136;2023-08-24T05:32:11;101630.34;;;18.98;88.24
64200;BME280;50516;52.272;5.136;2023-08-24T05:34:37;101634.69;;;19.04;87.92
64200;BME280;50516;52.272;5.136;2023-08-24T05:37:02;101622.72;;;19.18;87.43
64200;BME280;50516;52.272;5.136;2023-08-24T05:39:27;101616.91;;;19.28;86.88
64200;BME280;50516;52.272;5.136;2023-08-24T05:41:53;101620.59;;;19.37;86.54
64200;BME280;50516;52.272;5.136;2023-08-24T05:44:19;101623.44;;;19.46;86.19
64200;BME280;50516;52.272;5.136;2023-08-24T05:46:45;101628.81;;;19.56;86.13
64200;BME280;50516;52.272;5.136;2023-08-24T05:49:11;101626.22;;;19.60;85.87
64200;BME280;50516;52.272;5.136;2023-08-24T05:51:36;101629.78;;;19.74;85.63
64200;BME280;50516;52.272;5.136;2023-08-24T05:54:01;101625.44;;;19.68;85.81
64200;BME280;50516;52.272;5.136;2023-08-24T05:56:27;101626.63;;;19.67;85.61
64200;BME280;50516;52.272;5.136;2023-08-24T05:58:54;101607.56;;;19.83;84.98
64200;BME280;50516;52.272;5.136;2023-08-24T06:01:19;101609.66;;;20.00;84.49
64200;BME280;50516;52.272;5.136;2023-08-24T06:03:44;101615.22;;;20.00;84.28
64200;BME280;50516;52.272;5.136;2023-08-24T06:06:10;101606.81;;;20.14;83.69
64200;BME280;50516;52.272;5.136;2023-08-24T06:08:35;101606.28;;;20.12;84.01
64200;BME280;50516;52.272;5.136;2023-08-24T06:11:00;101597.50;;;19.96;84.42
64200;BME280;50516;52.272;5.136;2023-08-24T06:13:26;101592.69;;;19.87;84.76
64200;BME280;50516;52.272;5.136;2023-08-24T06:15:53;101584.28;;;19.79;85.06
64200;BME280;50516;52.272;5.136;2023-08-24T06:18:19;101583.63;;;19.82;85.36
64200;BME280;50516;52.272;5.136;2023-08-24T06:20:44;101578.72;;;20.10;84.59
64200;BME280;50516;52.272;5.136;2023-08-24T06:23:11;101576.81;;;20.19;84.12
64200;BME280;50516;52.272;5.136;2023-08-24T06:25:36;101570.44;;;20.28;83.77
64200;BME280;50516;52.272;5.136;2023-08-24T06:28:01;101571.97;;;20.42;83.61
64200;BME280;50516;52.272;5.136;2023-08-24T06:30:29;101560.00;;;20.42;82.36
64200;BME280;50516;52.272;5.136;2023-08-24T06:32:58;101566.47;;;20.60;82.19
64200;BME280;50516;52.272;5.136;2023-08-24T06:35:24;101566.41;;;20.74;81.70
64200;BME280;50516;52.272;5.136;2023-08-24T06:37:49;101580.25;;;20.96;81.35
64200;BME280;50516;52.272;5.136;2023-08-24T06:40:14;101567.78;;;21.11;80.05
64200;BME280;50516;52.272;5.136;2023-08-24T06:42:40;101561.56;;;21.32;79.44
64200;BME280;50516;52.272;5.136;2023-08-24T06:45:05;101560.91;;;21.52;78.76
64200;BME280;50516;52.272;5.136;2023-08-24T06:47:32;101560.25;;;21.64;78.27
64200;BME280;50516;52.272;5.136;2023-08-24T06:52:22;101560.38;;;21.77;78.07
64200;BME280;50516;52.272;5.136;2023-08-24T06:54:47;101548.38;;;21.94;77.44
64200;BME280;50516;52.272;5.136;2023-08-24T06:57:18;101544.56;;;21.89;78.18
64200;BME280;50516;52.272;5.136;2023-08-24T06:59:43;101545.94;;;21.75;78.23
64200;BME280;50516;52.272;5.136;2023-08-24T07:02:09;101555.81;;;21.63;78.54
64200;BME280;50516;52.272;5.136;2023-08-24T07:04:34;101554.66;;;21.56;79.17
64200;BME280;50516;52.272;5.136;2023-08-24T07:06:59;101556.78;;;21.59;78.91
64200;BME280;50516;52.272;5.136;2023-08-24T07:09:25;101554.81;;;21.68;79.08
64200;BME280;50516;52.272;5.136;2023-08-24T07:11:50;101557.13;;;21.57;78.32
64200;BME280;50516;52.272;5.136;2023-08-24T07:14:16;101558.81;;;21.49;79.09
64200;BME280;50516;52.272;5.136;2023-08-24T07:16:41;101556.16;;;21.53;79.72
64200;BME280;50516;52.272;5.136;2023-08-24T07:19:07;101542.19;;;21.53;78.91
64200;BME280;50516;52.272;5.136;2023-08-24T07:21:33;101542.00;;;21.76;78.90
64200;BME280;50516;52.272;5.136;2023-08-24T07:23:59;101537.94;;;22.12;77.02
64200;BME280;50516;52.272;5.136;2023-08-24T07:26:24;101541.00;;;22.28;76.81
64200;BME280;50516;52.272;5.136;2023-08-24T07:28:50;101540.31;;;22.48;76.19
64200;BME280;50516;52.272;5.136;2023-08-24T07:31:16;101530.16;;;22.65;75.71
64200;BME280;50516;52.272;5.136;2023-08-24T07:33:42;101532.69;;;22.78;74.86
64200;BME280;50516;52.272;5.136;2023-08-24T07:36:10;101524.78;;;23.10;73.97
64200;BME280;50516;52.272;5.136;2023-08-24T07:38:35;101521.63;;;23.33;72.72
64200;BME280;50516;52.272;5.136;2023-08-24T07:41:01;101518.78;;;23.54;72.74
64200;BME280;50516;52.272;5.136;2023-08-24T07:43:26;101521.00;;;23.48;72.35
64200;BME280;50516;52.272;5.136;2023-08-24T07:45:52;101525.13;;;23.63;71.28
64200;BME280;50516;52.272;5.136;2023-08-24T07:48:17;101520.44;;;23.55;72.31
64200;BME280;50516;52.272;5.136;2023-08-24T07:50:43;101518.91;;;23.58;71.27
64200;BME280;50516;52.272;5.136;2023-08-24T07:53:08;101525.59;;;23.65;69.95
64200;BME280;50516;52.272;5.136;2023-08-24T07:55:34;101515.59;;;23.43;71.46
64200;BME280;50516;52.272;5.136;2023-08-24T07:57:59;101527.47;;;23.61;70.49
64200;BME280;50516;52.272;5.136;2023-08-24T08:00:24;101522.22;;;23.72;69.88
64200;BME280;50516;52.272;5.136;2023-08-24T08:02:50;101515.81;;;24.05;69.47
64200;BME280;50516;52.272;5.136;2023-08-24T08:05:20;101518.41;;;24.22;68.76
64200;BME280;50516;52.272;5.136;2023-08-24T08:07:48;101513.25;;;24.37;68.15
64200;BME280;50516;52.272;5.136;2023-08-24T08:10:13;101509.50;;;24.33;68.81
64200;BME280;50516;52.272;5.136;2023-08-24T08:12:38;101492.91;;;24.15;68.99
64200;BME280;50516;52.272;5.136;2023-08-24T08:15:04;101482.50;;;24.03;69.15
64200;BME280;50516;52.272;5.136;2023-08-24T08:17:30;101481.31;;;24.17;67.56
64200;BME280;50516;52.272;5.136;2023-08-24T08:19:56;101488.47;;;24.14;67.19
64200;BME280;50516;52.272;5.136;2023-08-24T08:22:21;101491.03;;;24.19;68.75
64200;BME280;50516;52.272;5.136;2023-08-24T08:24:46;101484.50;;;24.03;68.04
64200;BME280;50516;52.272;5.136;2023-08-24T08:27:12;101478.16;;;24.18;68.17
64200;BME280;50516;52.272;5.136;2023-08-24T08:29:38;101475.38;;;24.31;67.64
64200;BME280;50516;52.272;5.136;2023-08-24T08:32:03;101483.06;;;24.46;67.89
64200;BME280;50516;52.272;5.136;2023-08-24T08:34:30;101486.94;;;24.41;66.09
64200;BME280;50516;52.272;5.136;2023-08-24T08:36:56;101489.25;;;24.27;67.17
64200;BME280;50516;52.272;5.136;2023-08-24T08:39:22;101486.59;;;24.18;67.72
64200;BME280;50516;52.272;5.136;2023-08-24T08:41:48;101482.84;;;24.14;67.96
64200;BME280;50516;52.272;5.136;2023-08-24T08:44:15;101489.25;;;24.27;68.30
64200;BME280;50516;52.272;5.136;2023-08-24T08:46:42;101470.47;;;24.28;67.85
64200;BME280;50516;52.272;5.136;2023-08-24T08:49:07;101470.31;;;24.36;68.30
64200;BME280;50516;52.272;5.136;2023-08-24T08:51:36;101466.47;;;24.53;67.74
64200;BME280;50516;52.272;5.136;2023-08-24T08:54:02;101474.69;;;24.58;67.76
64200;BME280;50516;52.272;5.136;2023-08-24T08:56:29;101464.13;;;24.55;68.37
64200;BME280;50516;52.272;5.136;2023-08-24T08:58:55;101460.25;;;24.48;67.99
64200;BME280;50516;52.272;5.136;2023-08-24T09:01:22;101459.94;;;24.37;66.80
64200;BME280;50516;52.272;5.136;2023-08-24T09:03:48;101444.75;;;24.26;68.24
64200;BME280;50516;52.272;5.136;2023-08-24T09:06:13;101440.28;;;24.37;67.36
64200;BME280;50516;52.272;5.136;2023-08-24T09:08:39;101434.78;;;24.40;66.35
64200;BME280;50516;52.272;5.136;2023-08-24T09:11:04;101421.91;;;24.52;66.64
64200;BME280;50516;52.272;5.136;2023-08-24T09:13:33;101412.19;;;24.62;66.15
64200;BME280;50516;52.272;5.136;2023-08-24T09:16:07;101406.88;;;24.72;66.71
64200;BME280;50516;52.272;5.136;2023-08-24T09:18:36;101412.63;;;24.76;67.59
64200;BME280;50516;52.272;5.136;2023-08-24T09:21:08;101424.13;;;24.71;66.63
64200;BME280;50516;52.272;5.136;2023-08-24T09:23:34;101420.63;;;24.62;67.46
64200;BME280;50516;52.272;5.136;2023-08-24T09:25:59;101419.19;;;24.55;67.21
64200;BME280;50516;52.272;5.136;2023-08-24T09:28:24;101422.72;;;24.52;68.40
64200;BME280;50516;52.272;5.136;2023-08-24T09:30:54;101432.91;;;24.45;68.21
64200;BME280;50516;52.272;5.136;2023-08-24T09:33:20;101431.19;;;24.28;69.38
64200;BME280;50516;52.272;5.136;2023-08-24T09:35:54;101427.22;;;24.16;68.70
64200;BME280;50516;52.272;5.136;2023-08-24T09:38:23;101421.72;;;24.20;69.72
64200;BME280;50516;52.272;5.136;2023-08-24T09:40:53;101403.56;;;24.17;69.43
64200;BME280;50516;52.272;5.136;2023-08-24T09:43:20;101395.44;;;24.00;70.22
64200;BME280;50516;52.272;5.136;2023-08-24T09:45:53;101385.94;;;24.04;70.55
64200;BME280;50516;52.272;5.136;2023-08-24T09:48:19;101369.50;;;24.03;71.19
64200;BME280;50516;52.272;5.136;2023-08-24T09:50:45;101372.16;;;23.99;71.99
64200;BME280;50516;52.272;5.136;2023-08-24T09:53:24;101366.78;;;23.94;72.48
64200;BME280;50516;52.272;5.136;2023-08-24T09:55:59;101367.59;;;23.95;71.41
64200;BME280;50516;52.272;5.136;2023-08-24T09:58:25;101372.28;;;23.91;72.70
64200;BME280;50516;52.272;5.136;2023-08-24T10:00:51;101369.47;;;23.91;72.75
64200;BME280;50516;52.272;5.136;2023-08-24T10:03:21;101382.09;;;23.97;72.91
64200;BME280;50516;52.272;5.136;2023-08-24T10:05:52;101384.78;;;23.93;73.44
64200;BME280;50516;52.272;5.136;2023-08-24T10:08:24;101385.00;;;24.00;73.58
64200;BME280;50516;52.272;5.136;2023-08-24T10:10:53;101379.88;;;24.02;73.86
64200;BME280;50516;52.272;5.136;2023-08-24T10:13:38;101376.50;;;23.97;73.28
64200;BME280;50516;52.272;5.136;2023-08-24T10:16:05;101387.81;;;23.88;73.91
64200;BME280;50516;52.272;5.136;2023-08-24T10:18:32;101388.16;;;23.74;75.13
64200;BME280;50516;52.272;5.136;2023-08-24T10:20:59;101393.72;;;23.62;75.75
64200;BME280;50516;52.272;5.136;2023-08-24T10:23:27;101400.03;;;23.59;76.58
64200;BME280;50516;52.272;5.136;2023-08-24T10:25:55;101416.47;;;23.48;77.75
64200;BME280;50516;52.272;5.136;2023-08-24T10:28:20;101412.72;;;23.44;79.28
64200;BME280;50516;52.272;5.136;2023-08-24T10:30:46;101407.81;;;23.41;80.03
64200;BME280;50516;52.272;5.136;2023-08-24T10:33:13;101401.41;;;23.40;80.36
64200;BME280;50516;52.272;5.136;2023-08-24T10:35:40;101406.41;;;23.34;80.31
64200;BME280;50516;52.272;5.136;2023-08-24T10:38:05;101419.13;;;23.32;80.59
64200;BME280;50516;52.272;5.136;2023-08-24T10:40:32;101417.66;;;23.13;80.46
64200;BME280;50516;52.272;5.136;2023-08-24T10:42:58;101400.38;;;23.11;81.41
64200;BME280;50516;52.272;5.136;2023-08-24T10:45:56;101404.25;;;23.19;81.52
64200;BME280;50516;52.272;5.136;2023-08-24T10:48:23;101410.00;;;23.23;82.32
64200;BME280;50516;52.272;5.136;2023-08-24T10:53:57;101396.84;;;23.48;82.93
64200;BME280;50516;52.272;5.136;2023-08-24T10:56:36;101402.38;;;23.81;83.27
64200;BME280;50516;52.272;5.136;2023-08-24T10:59:15;101399.16;;;24.04;83.87
64200;BME280;50516;52.272;5.136;2023-08-24T11:02:01;101395.84;;;24.39;82.94
64200;BME280;50516;52.272;5.136;2023-08-24T11:04:26;101388.47;;;24.47;83.13
64200;BME280;50516;52.272;5.136;2023-08-24T11:06:57;101379.91;;;24.55;83.11
64200;BME280;50516;52.272;5.136;2023-08-24T11:09:24;101381.06;;;24.54;83.12
64200;BME280;50516;52.272;5.136;2023-08-24T11:12:00;101383.66;;;24.47;82.89
64200;BME280;50516;52.272;5.136;2023-08-24T11:14:27;101378.75;;;24.44;82.92
64200;BME280;50516;52.272;5.136;2023-08-24T11:16:57;101377.72;;;24.36;82.85
64200;BME280;50516;52.272;5.136;2023-08-24T11:19:23;101372.19;;;24.52;83.00
64200;BME280;50516;52.272;5.136;2023-08-24T11:21:51;101367.47;;;24.69;82.68
64200;BME280;50516;52.272;5.136;2023-08-24T11:24:16;101372.59;;;24.79;83.98
64200;BME280;50516;52.272;5.136;2023-08-24T11:26:43;101375.56;;;24.99;83.02
64200;BME280;50516;52.272;5.136;2023-08-24T11:29:09;101385.88;;;24.94;85.14
64200;BME280;50516;52.272;5.136;2023-08-24T11:31:38;101381.31;;;24.90;84.41
64200;BME280;50516;52.272;5.136;2023-08-24T11:34:05;101379.00;;;24.92;84.22
64200;BME280;50516;52.272;5.136;2023-08-24T11:36:41;101375.06;;;24.81;84.76
64200;BME280;50516;52.272;5.136;2023-08-24T11:39:06;101368.91;;;24.63;85.36
64200;BME280;50516;52.272;5.136;2023-08-24T11:41:32;101365.66;;;24.48;85.31
64200;BME280;50516;52.272;5.136;2023-08-24T11:44:00;101363.03;;;24.02;84.05
64200;BME280;50516;52.272;5.136;2023-08-24T11:46:28;101354.50;;;23.99;84.20
64200;BME280;50516;52.272;5.136;2023-08-24T11:48:53;101361.75;;;24.12;84.14
64200;BME280;50516;52.272;5.136;2023-08-24T11:51:19;101351.81;;;24.15;83.48
64200;BME280;50516;52.272;5.136;2023-08-24T11:53:46;101355.47;;;24.03;83.40
64200;BME280;50516;52.272;5.136;2023-08-24T11:56:12;101345.28;;;23.98;81.67
64200;BME280;50516;52.272;5.136;2023-08-24T11:58:39;101339.41;;;23.66;81.60
64200;BME280;50516;52.272;5.136;2023-08-24T12:01:05;101341.75;;;23.77;82.27
64200;BME280;50516;52.272;5.136;2023-08-24T12:03:31;101330.44;;;23.73;81.00
64200;BME280;50516;52.272;5.136;2023-08-24T12:06:02;101320.16;;;23.90;81.05
64200;BME280;50516;52.272;5.136;2023-08-24T12:08:37;101312.09;;;24.00;79.99
64200;BME280;50516;52.272;5.136;2023-08-24T12:11:03;101301.81;;;23.92;80.81
64200;BME280;50516;52.272;5.136;2023-08-24T12:13:32;101293.38;;;24.04;80.32
64200;BME280;50516;52.272;5.136;2023-08-24T12:15:58;101293.84;;;24.06;78.90
64200;BME280;50516;52.272;5.136;2023-08-24T12:18:26;101296.75;;;24.10;78.87
64200;BME280;50516;52.272;5.136;2023-08-24T12:20:51;101297.97;;;23.84;79.82
64200;BME280;50516;52.272;5.136;2023-08-24T12:23:16;101294.66;;;23.95;80.07
64200;BME280;50516;52.272;5.136;2023-08-24T12:25:43;101285.22;;;23.99;79.61
64200;BME280;50516;52.272;5.136;2023-08-24T12:28:12;101291.59;;;24.24;79.61
64200;BME280;50516;52.272;5.136;2023-08-24T12:35:52;101278.19;;;24.05;80.41
64200;BME280;50516;52.272;5.136;2023-08-24T12:38:19;101268.72;;;23.98;80.86
64200;BME280;50516;52.272;5.136;2023-08-24T12:40:44;101248.81;;;24.15;80.46
64200;BME280;50516;52.272;5.136;2023-08-24T12:43:10;101236.53;;;23.92;81.21
64200;BME280;50516;52.272;5.136;2023-08-24T12:45:35;101227.84;;;23.97;81.66
64200;BME280;50516;52.272;5.136;2023-08-24T12:48:03;101230.16;;;23.95;81.30
64200;BME280;50516;52.272;5.136;2023-08-24T12:50:29;101219.53;;;24.00;81.48
64200;BME280;50516;52.272;5.136;2023-08-24T12:52:54;101212.72;;;24.14;80.84
64200;BME280;50516;52.272;5.136;2023-08-24T12:55:24;101211.44;;;24.11;80.61
64200;BME280;50516;52.272;5.136;2023-08-24T12:57:49;101212.06;;;24.33;79.76
64200;BME280;50516;52.272;5.136;2023-08-24T13:00:15;101199.66;;;24.34;79.21